createdAt,value
2018-10-05T00:00:20.123Z,56151.91
2018-10-05T00:02:49.337Z,56172.48
2018-10-05T00:05:18.548Z,56204.36
2018-10-05T00:07:47.751Z,56150.89
2018-10-05T00:10:16.966Z,56144.71
2018-10-05T00:12:46.193Z,56166.31
2018-10-05T00:15:15.337Z,56155.00
2018-10-05T00:17:44.527Z,56159.11
2018-10-05T00:20:13.692Z,56161.17
2018-10-05T00:22:42.864Z,56161.17
2018-10-05T00:25:12.019Z,56184.82
2018-10-05T00:27:41.194Z,56187.90
2018-10-05T00:30:10.403Z,56184.82
2018-10-05T00:32:39.594Z,56158.09
2018-10-05T00:35:08.734Z,56197.16
2018-10-05T00:37:37.933Z,56174.54
2018-10-05T00:40:07.205Z,56172.48
2018-10-05T00:42:36.446Z,56186.87
2018-10-05T00:45:05.895Z,56170.42
2018-10-05T00:47:35.049Z,56238.29
2018-10-05T00:50:04.243Z,56166.31
2018-10-05T00:52:33.468Z,56173.51
2018-10-05T00:55:02.710Z,56176.59
2018-10-05T00:57:31.852Z,56198.19
2018-10-05T01:00:00.980Z,56188.93
2018-10-05T01:02:30.162Z,56200.24
2018-10-05T01:04:59.394Z,56205.38
2018-10-05T01:07:28.587Z,56201.27
2018-10-05T01:09:57.765Z,56197.16
2018-10-05T01:12:26.945Z,56196.13
2018-10-05T01:14:56.145Z,56188.93
2018-10-05T01:17:25.393Z,56216.70
2018-10-05T01:19:54.547Z,56195.10
2018-10-05T01:22:23.701Z,56177.62
2018-10-05T01:24:52.924Z,56180.71
2018-10-05T01:27:22.109Z,56179.68
2018-10-05T01:29:51.317Z,56185.85
2018-10-05T01:32:20.541Z,56184.82
2018-10-05T01:34:49.797Z,56207.44
2018-10-05T01:37:18.936Z,56180.71
2018-10-05T01:39:48.130Z,56180.71
2018-10-05T01:42:17.287Z,56194.07
2018-10-05T01:44:46.536Z,56202.30
2018-10-05T01:47:15.714Z,56207.44
2018-10-05T01:49:44.876Z,56194.07
2018-10-05T01:52:14.066Z,56219.78
2018-10-05T01:54:43.289Z,56219.78
2018-10-05T01:57:12.498Z,56198.19
2018-10-05T01:59:41.695Z,56203.33
2018-10-05T02:02:10.921Z,56233.15
2018-10-05T02:04:40.061Z,56188.93
2018-10-05T02:07:09.289Z,56253.71
2018-10-05T02:09:38.463Z,56208.47
2018-10-05T02:12:07.655Z,56155.00
2018-10-05T02:14:36.816Z,56174.54
2018-10-05T02:17:05.995Z,56200.24
2018-10-05T02:19:35.139Z,56194.07
2018-10-05T02:22:04.316Z,56234.18
2018-10-05T02:24:33.444Z,56203.33
2018-10-05T02:27:02.585Z,56201.27
2018-10-05T02:29:31.729Z,56197.16
2018-10-05T02:32:00.841Z,56226.98
2018-10-05T02:34:30.019Z,56196.13
2018-10-05T02:36:59.167Z,56197.16
2018-10-05T02:39:28.311Z,56208.47
2018-10-05T02:41:57.464Z,56207.44
2018-10-05T02:44:26.593Z,56202.30
2018-10-05T02:46:55.709Z,56236.23
2018-10-05T02:49:24.869Z,56223.89
2018-10-05T02:51:54.036Z,56202.30
2018-10-05T02:54:23.165Z,56203.33
2018-10-05T02:56:52.341Z,56175.56
2018-10-05T02:59:21.472Z,56200.24
2018-10-05T03:02:07.813Z,56206.41
2018-10-05T03:04:36.962Z,56193.05
2018-10-05T03:07:06.120Z,56219.78
2018-10-05T03:09:35.278Z,56174.54
2018-10-05T03:12:04.419Z,56211.55
2018-10-05T03:14:33.583Z,56192.02
2018-10-05T03:17:02.772Z,56197.16
2018-10-05T03:19:32.000Z,56195.10
2018-10-05T03:22:01.156Z,56206.41
2018-10-05T03:24:30.285Z,56205.38
2018-10-05T03:26:59.400Z,56169.39
2018-10-05T03:29:28.597Z,56202.30
2018-10-05T03:31:57.739Z,56195.10
2018-10-05T03:34:26.869Z,56203.33
2018-10-05T03:36:56.032Z,56186.87
2018-10-05T03:39:25.161Z,56195.10
2018-10-05T03:41:54.397Z,56209.50
2018-10-05T03:44:23.557Z,56195.10
2018-10-05T03:46:52.709Z,56203.33
2018-10-05T03:49:21.899Z,56186.87
2018-10-05T03:51:51.072Z,56174.54
2018-10-05T03:54:20.660Z,56206.41
2018-10-05T03:56:49.821Z,56207.44
2018-10-05T03:59:18.980Z,56195.10
2018-10-05T04:01:48.136Z,56204.36
2018-10-05T04:04:17.320Z,56202.30
2018-10-05T04:06:46.511Z,56203.33
2018-10-05T04:09:15.670Z,56225.95
2018-10-05T04:11:44.828Z,56238.29
2018-10-05T04:14:13.950Z,56218.75
2018-10-05T04:16:43.126Z,56199.21
2018-10-05T04:19:12.310Z,56193.05
2018-10-05T04:21:41.489Z,56195.10
2018-10-05T04:24:10.651Z,56189.96
2018-10-05T04:26:39.805Z,56228.01
2018-10-05T04:29:08.977Z,56234.18
2018-10-05T04:31:38.181Z,56195.10
2018-10-05T04:34:07.340Z,56196.13
2018-10-05T04:36:36.522Z,56225.95
2018-10-05T04:39:07.885Z,56195.10
2018-10-05T04:41:37.049Z,56248.57
2018-10-05T04:44:06.493Z,56208.47
2018-10-05T04:46:35.601Z,56203.33
2018-10-05T04:49:04.745Z,56215.67
2018-10-05T04:51:33.952Z,56217.72
2018-10-05T04:54:03.059Z,56184.82
2018-10-05T04:56:32.209Z,56209.50
2018-10-05T04:59:01.296Z,56208.47
2018-10-05T05:01:30.488Z,56231.09
2018-10-05T05:03:59.635Z,56219.78
2018-10-05T05:06:28.748Z,56200.24
2018-10-05T05:08:57.910Z,56192.02
2018-10-05T05:11:27.080Z,56211.55
2018-10-05T05:13:56.182Z,56194.07
2018-10-05T05:16:25.311Z,56213.61
2018-10-05T05:18:54.473Z,56199.21
2018-10-05T05:21:23.643Z,56194.07
2018-10-05T05:23:52.868Z,56216.70
2018-10-05T05:26:22.017Z,56232.12
2018-10-05T05:28:51.122Z,56218.75
2018-10-05T05:31:20.242Z,56222.87
2018-10-05T05:33:49.376Z,56175.56
2018-10-05T05:36:18.492Z,56193.05
2018-10-05T05:38:47.587Z,56212.58
2018-10-05T05:41:16.764Z,56220.81
2018-10-05T05:43:45.885Z,56223.89
2018-10-05T05:46:15.118Z,56207.44
2018-10-05T05:48:44.613Z,56189.96
2018-10-05T05:51:13.787Z,56187.90
2018-10-05T05:53:42.894Z,56181.73
2018-10-05T05:56:12.013Z,56208.47
2018-10-05T05:58:41.177Z,56215.67
2018-10-05T06:01:10.397Z,56185.85
2018-10-05T06:03:39.816Z,56192.02
2018-10-05T06:06:09.003Z,56200.24
2018-10-05T06:08:38.185Z,56203.33
2018-10-05T06:11:07.864Z,56212.58
2018-10-05T06:13:37.003Z,56189.96
2018-10-05T06:16:06.208Z,56204.36
2018-10-05T06:18:35.245Z,56179.68
2018-10-05T06:21:04.417Z,56195.10
2018-10-05T06:23:33.604Z,56138.55
2018-10-05T06:26:02.746Z,56160.14
2018-10-05T06:28:31.891Z,56181.73
2018-10-05T06:31:01.129Z,56182.76
2018-10-05T06:33:30.257Z,56183.79
2018-10-05T06:35:59.440Z,56199.21
2018-10-05T06:38:28.552Z,56177.62
2018-10-05T06:40:57.789Z,56196.13
2018-10-05T06:43:26.918Z,56162.20
2018-10-05T06:45:56.069Z,56164.25
2018-10-05T06:48:25.357Z,56185.85
2018-10-05T06:50:54.489Z,56179.68
2018-10-05T06:53:23.770Z,56145.75
2018-10-05T06:55:52.806Z,56170.42
2018-10-05T06:58:21.940Z,56172.48
2018-10-05T07:00:51.074Z,56151.91
2018-10-05T07:03:20.196Z,56142.66
2018-10-05T07:05:49.349Z,56133.41
2018-10-05T07:08:18.488Z,56114.90
2018-10-05T07:10:47.605Z,56127.23
2018-10-05T07:13:16.746Z,56156.03
2018-10-05T07:15:45.941Z,56143.69
2018-10-05T07:18:15.051Z,56129.29
2018-10-05T07:20:44.229Z,56137.52
2018-10-05T07:23:13.371Z,56145.75
2018-10-05T07:25:42.521Z,56107.70
2018-10-05T07:28:11.705Z,56122.09
2018-10-05T07:30:40.826Z,56146.77
2018-10-05T07:33:09.919Z,56126.21
2018-10-05T07:35:39.085Z,56122.09
2018-10-05T07:38:08.252Z,56109.76
2018-10-05T07:40:37.401Z,56102.56
2018-10-05T07:43:06.738Z,56135.46
2018-10-05T07:45:35.835Z,56106.67
2018-10-05T07:48:05.023Z,56131.35
2018-10-05T07:50:34.183Z,56119.01
2018-10-05T07:53:03.353Z,56138.55
2018-10-05T07:55:32.500Z,56104.62
2018-10-05T07:58:01.650Z,56116.95
2018-10-05T08:00:30.813Z,56113.87
2018-10-05T08:02:59.947Z,56089.19
2018-10-05T08:05:29.080Z,56131.35
2018-10-05T08:07:58.199Z,56123.12
2018-10-05T08:10:27.333Z,56067.60
2018-10-05T08:12:56.504Z,56088.16
2018-10-05T08:15:25.733Z,56083.02
2018-10-05T08:17:54.887Z,56082.00
2018-10-05T08:20:24.032Z,56106.67
2018-10-05T08:22:53.640Z,56075.82
2018-10-05T08:25:22.801Z,56069.65
2018-10-05T08:27:51.995Z,56084.05
2018-10-05T08:30:21.173Z,56084.05
2018-10-05T08:32:50.357Z,56080.96
2018-10-05T08:35:19.684Z,56090.22
2018-10-05T08:37:48.809Z,56075.82
2018-10-05T08:40:18.199Z,56096.39
2018-10-05T08:42:47.156Z,56061.43
2018-10-05T08:45:16.282Z,56112.84
2018-10-05T08:47:45.448Z,56079.94
2018-10-05T08:50:14.638Z,56098.45
2018-10-05T08:52:43.798Z,56062.46
2018-10-05T08:55:12.991Z,56048.06
2018-10-05T08:57:42.181Z,56061.43
2018-10-05T09:00:11.431Z,56049.09
2018-10-05T09:02:40.493Z,56050.12
2018-10-05T09:05:09.616Z,56051.14
2018-10-05T09:07:38.809Z,56039.84
2018-10-05T09:10:08.387Z,56016.19
2018-10-05T09:12:37.584Z,56006.93
2018-10-05T09:15:06.753Z,56002.82
2018-10-05T09:17:35.952Z,56026.47
2018-10-05T09:20:05.092Z,56006.93
2018-10-05T09:22:34.210Z,55959.63
2018-10-05T09:25:03.362Z,55926.73
2018-10-05T09:27:32.528Z,55911.31
2018-10-05T09:30:01.667Z,55931.87
2018-10-05T09:32:30.812Z,55913.36
2018-10-05T09:34:59.980Z,55951.41
2018-10-05T09:37:29.226Z,55937.01
2018-10-05T09:39:58.338Z,55946.27
2018-10-05T09:42:27.484Z,55949.35
2018-10-05T09:44:56.711Z,55930.84
2018-10-05T09:47:25.781Z,55940.10
2018-10-05T09:49:55.345Z,55977.11
2018-10-05T09:52:24.879Z,55945.24
2018-10-05T09:54:54.039Z,55924.68
2018-10-05T09:57:23.196Z,55935.98
2018-10-05T09:59:52.488Z,55927.76
2018-10-05T10:02:27.026Z,55941.13
2018-10-05T10:04:56.160Z,55941.13
2018-10-05T10:07:25.312Z,55971.97
2018-10-05T10:09:54.469Z,55968.89
2018-10-05T10:12:23.622Z,55954.49
2018-10-05T10:14:52.784Z,55960.66
2018-10-05T10:17:21.933Z,55944.21
2018-10-05T10:19:51.092Z,55979.17
2018-10-05T10:22:20.202Z,55968.89
2018-10-05T10:24:49.348Z,55961.69
2018-10-05T10:27:18.504Z,55991.51
2018-10-05T10:29:47.700Z,56007.96
2018-10-05T10:32:16.873Z,56019.27
2018-10-05T10:34:46.041Z,55983.28
2018-10-05T10:37:15.197Z,56007.96
2018-10-05T10:39:44.327Z,55992.54
2018-10-05T10:42:13.450Z,55981.23
2018-10-05T10:44:42.593Z,56036.75
2018-10-05T10:47:11.719Z,56006.93
2018-10-05T10:49:40.889Z,56042.92
2018-10-05T10:52:09.999Z,56006.93
2018-10-05T10:54:39.124Z,56028.52
2018-10-05T10:57:08.244Z,56052.18
2018-10-05T10:59:37.364Z,56032.64
2018-10-05T11:02:06.480Z,56032.64
2018-10-05T11:04:35.715Z,56043.95
2018-10-05T11:07:04.810Z,56073.77
2018-10-05T11:09:33.941Z,56034.70
2018-10-05T11:12:03.054Z,56075.82
2018-10-05T11:14:32.198Z,56053.20
2018-10-05T11:17:01.644Z,56079.94
2018-10-05T11:19:30.847Z,56083.02
2018-10-05T11:21:59.940Z,56079.94
2018-10-05T11:24:29.529Z,56105.64
2018-10-05T11:26:58.703Z,56082.00
2018-10-05T11:29:27.803Z,56102.56
2018-10-05T11:31:56.916Z,56067.60
2018-10-05T11:34:26.009Z,56082.00
2018-10-05T11:36:55.150Z,56049.09
2018-10-05T11:39:24.334Z,56071.71
2018-10-05T11:41:53.446Z,56085.08
2018-10-05T11:44:22.616Z,56082.00
2018-10-05T11:46:51.739Z,56055.26
2018-10-05T11:49:20.887Z,56071.71
2018-10-05T11:51:49.982Z,56088.16
2018-10-05T11:54:19.104Z,56068.62
2018-10-05T11:56:48.229Z,56068.62
2018-10-05T11:59:17.589Z,56077.88
2018-10-05T12:01:46.721Z,56077.88
2018-10-05T12:04:15.863Z,56065.54
2018-10-05T12:06:45.031Z,56078.91
2018-10-05T12:09:14.169Z,56063.48
2018-10-05T12:11:43.311Z,56039.84
2018-10-05T12:14:12.454Z,56043.95
2018-10-05T12:16:41.600Z,56058.34
2018-10-05T12:19:10.688Z,56063.48
2018-10-05T12:21:39.843Z,56034.70
2018-10-05T12:24:09.004Z,56077.88
2018-10-05T12:26:38.141Z,56018.24
2018-10-05T12:29:07.336Z,56056.29
2018-10-05T12:31:36.494Z,56020.30
2018-10-05T12:34:05.681Z,56042.92
2018-10-05T12:36:34.832Z,56041.89
2018-10-05T12:39:05.375Z,56020.30
2018-10-05T12:41:34.523Z,56034.70
2018-10-05T12:44:03.652Z,56010.02
2018-10-05T12:46:32.762Z,56024.41
2018-10-05T12:49:02.175Z,56048.06
2018-10-05T12:51:31.360Z,56036.75
2018-10-05T12:54:00.518Z,56033.67
2018-10-05T12:56:29.646Z,56018.24
2018-10-05T12:58:58.803Z,56037.78
2018-10-05T13:01:28.000Z,55993.57
2018-10-05T13:03:57.140Z,55984.31
2018-10-05T13:06:26.285Z,56034.70
2018-10-05T13:08:55.490Z,56013.10
2018-10-05T13:11:24.636Z,56004.87
2018-10-05T13:13:53.748Z,55989.45
2018-10-05T13:16:22.864Z,55991.51
2018-10-05T13:18:52.036Z,56011.05
2018-10-05T13:21:21.165Z,55983.28
2018-10-05T13:23:50.337Z,56012.07
2018-10-05T13:26:19.472Z,55999.73
2018-10-05T13:28:48.647Z,55977.11
2018-10-05T13:31:17.776Z,55996.65
2018-10-05T13:33:46.949Z,55986.37
2018-10-05T13:36:16.084Z,55986.37
2018-10-05T13:38:45.244Z,55989.45
2018-10-05T13:41:14.429Z,55990.48
2018-10-05T13:43:44.369Z,56006.93
2018-10-05T13:46:13.508Z,55992.54
2018-10-05T13:48:42.637Z,56022.36
2018-10-05T13:51:11.771Z,55993.57
2018-10-05T13:53:40.933Z,55982.25
2018-10-05T13:56:10.124Z,56010.02
2018-10-05T13:58:39.274Z,56003.85
2018-10-05T14:01:08.448Z,55979.17
2018-10-05T14:03:37.568Z,55987.40
2018-10-05T14:06:06.706Z,56012.07
2018-10-05T14:08:35.872Z,55999.73
2018-10-05T14:11:05.003Z,56008.99
2018-10-05T14:13:34.124Z,56025.44
2018-10-05T14:16:03.349Z,56002.82
2018-10-05T14:18:32.540Z,56031.61
2018-10-05T14:21:01.691Z,55994.59
2018-10-05T14:23:30.875Z,56022.36
2018-10-05T14:25:59.996Z,56035.72
2018-10-05T14:28:29.123Z,56040.86
2018-10-05T14:30:58.244Z,56060.40
2018-10-05T14:33:27.366Z,56030.58
2018-10-05T14:35:56.475Z,56027.50
2018-10-05T14:38:25.608Z,56044.98
2018-10-05T14:40:54.749Z,56047.03
2018-10-05T14:43:23.905Z,56042.92
2018-10-05T14:45:53.237Z,56063.48
2018-10-05T14:48:22.249Z,56023.38
2018-10-05T14:50:51.381Z,56033.67
2018-10-05T14:53:20.519Z,56022.36
2018-10-05T14:55:49.650Z,56026.47
2018-10-05T14:58:18.811Z,56066.57
2018-10-05T15:00:48.413Z,56058.34
2018-10-05T15:03:17.572Z,56049.09
2018-10-05T15:05:46.705Z,56035.72
2018-10-05T15:08:15.870Z,56050.12
2018-10-05T15:10:45.018Z,56044.98
2018-10-05T15:13:14.188Z,56069.65
2018-10-05T15:15:43.565Z,56011.05
2018-10-05T15:18:12.711Z,56042.92
2018-10-05T15:20:41.905Z,56068.62
2018-10-05T15:23:11.053Z,56037.78
2018-10-05T15:25:40.205Z,56057.32
2018-10-05T15:28:09.324Z,56050.12
2018-10-05T15:30:38.485Z,56064.51
2018-10-05T15:33:07.668Z,56080.96
2018-10-05T15:35:36.785Z,56062.46
2018-10-05T15:38:06.055Z,56044.98
2018-10-05T15:40:35.222Z,56086.11
2018-10-05T15:43:04.381Z,56052.18
2018-10-05T15:45:33.495Z,56049.09
2018-10-05T15:48:02.582Z,56055.26
2018-10-05T15:50:31.700Z,56082.00
2018-10-05T15:53:00.923Z,56073.77
2018-10-05T15:55:30.098Z,56090.22
2018-10-05T15:57:59.234Z,56033.67
2018-10-05T16:00:28.376Z,56062.46
2018-10-05T16:02:57.495Z,56063.48
2018-10-05T16:05:26.649Z,56051.14
2018-10-05T16:07:55.741Z,56077.88
2018-10-05T16:10:24.881Z,56082.00
2018-10-05T16:12:54.167Z,56061.43
2018-10-05T16:15:23.240Z,56057.32
2018-10-05T16:17:52.379Z,56088.16
2018-10-05T16:20:21.554Z,56067.60
2018-10-05T16:22:50.673Z,56074.80
2018-10-05T16:25:19.840Z,56098.45
2018-10-05T16:27:48.987Z,56078.91
2018-10-05T16:30:18.139Z,56088.16
2018-10-05T16:32:47.293Z,56083.02
2018-10-05T16:35:16.406Z,56097.42
2018-10-05T16:37:45.538Z,56100.50
2018-10-05T16:40:14.667Z,56088.16
2018-10-05T16:42:43.782Z,56107.70
2018-10-05T16:45:12.895Z,56122.09
2018-10-05T16:47:42.004Z,56090.22
2018-10-05T16:50:11.247Z,56113.87
2018-10-05T16:52:40.682Z,56108.73
2018-10-05T16:55:09.856Z,56109.76
2018-10-05T16:57:39.296Z,56094.33
2018-10-05T17:00:08.661Z,56104.62
2018-10-05T17:02:37.837Z,56123.12
2018-10-05T17:05:06.967Z,56119.01
2018-10-05T17:07:36.075Z,56116.95
2018-10-05T17:10:05.213Z,56123.12
2018-10-05T17:12:34.374Z,56077.88
2018-10-05T17:15:03.488Z,56106.67
2018-10-05T17:17:32.631Z,56121.07
2018-10-05T17:20:01.798Z,56141.63
2018-10-05T17:22:30.911Z,56119.01
2018-10-05T17:25:00.030Z,56116.95
2018-10-05T17:27:29.214Z,56108.73
2018-10-05T17:29:58.405Z,56095.36
2018-10-05T17:32:27.554Z,56109.76
2018-10-05T17:34:56.740Z,56121.07
2018-10-05T17:37:25.882Z,56159.11
2018-10-05T17:39:55.054Z,56123.12
2018-10-05T17:42:24.198Z,56132.38
2018-10-05T17:44:53.373Z,56124.15
2018-10-05T17:47:22.553Z,56105.64
2018-10-05T17:49:51.718Z,56143.69
2018-10-05T17:52:20.861Z,56131.35
2018-10-05T17:54:49.975Z,56096.39
2018-10-05T17:57:19.130Z,56100.50
2018-10-05T17:59:48.307Z,56129.29
2018-10-05T18:02:17.427Z,56147.80
2018-10-05T18:04:46.556Z,56121.07
2018-10-05T18:07:15.680Z,56129.29
2018-10-05T18:09:44.830Z,56145.75
2018-10-05T18:12:13.945Z,56170.42
2018-10-05T18:14:43.105Z,56129.29
2018-10-05T18:17:12.244Z,56135.46
2018-10-05T18:19:41.425Z,56148.83
2018-10-05T18:22:10.662Z,56123.12
2018-10-05T18:24:39.890Z,56176.59
2018-10-05T18:27:09.064Z,56123.12
2018-10-05T18:29:38.252Z,56126.21
2018-10-05T18:32:07.432Z,56114.90
2018-10-05T18:34:36.606Z,56145.75
2018-10-05T18:37:05.742Z,56132.38
2018-10-05T18:39:34.940Z,56147.80
2018-10-05T18:42:04.089Z,56128.27
2018-10-05T18:44:33.271Z,56140.61
2018-10-05T18:47:02.515Z,56122.09
2018-10-05T18:49:31.717Z,56158.09
2018-10-05T18:52:00.904Z,56140.61
2018-10-05T18:54:30.052Z,56123.12
2018-10-05T18:57:16.371Z,56152.94
2018-10-05T18:59:45.623Z,56153.97
2018-10-05T19:02:15.706Z,56135.46
2018-10-05T19:04:45.426Z,56144.71
2018-10-05T19:07:14.552Z,56148.83
2018-10-05T19:09:43.717Z,56124.15
2018-10-05T19:12:12.925Z,56148.83
2018-10-05T19:14:42.137Z,56143.69
2018-10-05T19:17:11.309Z,56175.56
2018-10-05T19:19:40.467Z,56130.32
2018-10-05T19:22:09.585Z,56149.86
2018-10-05T19:24:38.801Z,56170.42
2018-10-05T19:27:07.963Z,56137.52
2018-10-05T19:29:37.109Z,56145.75
2018-10-05T19:32:06.271Z,56147.80
2018-10-05T19:34:35.386Z,56138.55
2018-10-05T19:37:04.513Z,56143.69
2018-10-05T19:39:33.664Z,56143.69
2018-10-05T19:42:02.898Z,56125.18
2018-10-05T19:44:31.954Z,56129.29
2018-10-05T19:47:01.119Z,56132.38
2018-10-05T19:49:30.241Z,56137.52
2018-10-05T19:51:59.398Z,56132.38
2018-10-05T19:54:28.556Z,56129.29
2018-10-05T19:56:57.724Z,56156.03
2018-10-05T19:59:26.859Z,56160.14
2018-10-05T20:01:56.069Z,56136.49
2018-10-05T20:04:25.210Z,56142.66
2018-10-05T20:06:54.323Z,56151.91
2018-10-05T20:09:23.480Z,56133.41
2018-10-05T20:14:32.172Z,56156.03
2018-10-05T20:17:01.339Z,56155.00
2018-10-05T20:19:30.960Z,56127.23
2018-10-05T20:22:00.094Z,56153.97
2018-10-05T20:24:29.305Z,56169.39
2018-10-05T20:26:58.374Z,56164.25
2018-10-05T20:29:27.944Z,56145.75
2018-10-05T20:31:57.109Z,56149.86
2018-10-05T20:34:26.240Z,56133.41
2018-10-05T20:36:55.595Z,56144.71
2018-10-05T20:39:24.604Z,56129.29
2018-10-05T20:41:53.731Z,56151.91
2018-10-05T20:44:22.933Z,56148.83
2018-10-05T20:46:52.070Z,56123.12
2018-10-05T20:49:21.249Z,56168.37
2018-10-05T20:51:50.438Z,56150.89
2018-10-05T20:54:19.551Z,56183.79
2018-10-05T20:56:48.704Z,56144.71
2018-10-05T20:59:17.854Z,56195.10
2018-10-05T21:01:46.979Z,56127.23
2018-10-05T21:04:16.145Z,56139.57
2018-10-05T21:06:45.454Z,56144.71
2018-10-05T21:09:14.574Z,56158.09
2018-10-05T21:11:43.733Z,56146.77
2018-10-05T21:14:12.897Z,56171.45
2018-10-05T21:16:42.085Z,56133.41
2018-10-05T21:19:11.231Z,56147.80
2018-10-05T21:21:40.391Z,56153.97
2018-10-05T21:24:09.553Z,56151.91
2018-10-05T21:26:38.738Z,56180.71
2018-10-05T21:29:08.546Z,56135.46
2018-10-05T21:31:37.706Z,56146.77
2018-10-05T21:34:06.869Z,56153.97
2018-10-05T21:36:36.016Z,56156.03
2018-10-05T21:39:07.744Z,56153.97
2018-10-05T21:41:36.921Z,56156.03
2018-10-05T21:44:06.115Z,56138.55
2018-10-05T21:46:35.252Z,56158.09
2018-10-05T21:49:04.449Z,56135.46
2018-10-05T21:51:33.645Z,56132.38
2018-10-05T21:54:03.117Z,56153.97
2018-10-05T21:56:32.269Z,56149.86
2018-10-05T21:59:01.647Z,56145.75
2018-10-05T22:01:30.886Z,56176.59
2018-10-05T22:04:00.653Z,56146.77
2018-10-05T22:06:29.829Z,56141.63
2018-10-05T22:08:59.017Z,56150.89
2018-10-05T22:11:28.240Z,56172.48
2018-10-05T22:13:57.437Z,56161.17
2018-10-05T22:16:26.610Z,56172.48
2018-10-05T22:18:55.780Z,56159.11
2018-10-05T22:21:24.956Z,56130.32
2018-10-05T22:23:54.349Z,56133.41
2018-10-05T22:26:23.539Z,56131.35
2018-10-05T22:28:52.728Z,56147.80
2018-10-05T22:31:21.909Z,56161.17
2018-10-05T22:33:51.074Z,56135.46
2018-10-05T22:36:20.269Z,56146.77
2018-10-05T22:38:49.396Z,56193.05
2018-10-05T22:41:18.625Z,56172.48
2018-10-05T22:43:48.264Z,56179.68
2018-10-05T22:46:17.494Z,56146.77
2018-10-05T22:48:46.666Z,56182.76
2018-10-05T22:51:15.861Z,56179.68
2018-10-05T22:53:45.047Z,56177.62
2018-10-05T22:56:14.225Z,56153.97
2018-10-05T22:58:43.641Z,56179.68
2018-10-05T23:01:12.834Z,56152.94
2018-10-05T23:03:41.968Z,56142.66
2018-10-05T23:06:11.123Z,56157.05
2018-10-05T23:08:40.261Z,56151.91
2018-10-05T23:11:09.421Z,56116.95
2018-10-05T23:13:38.634Z,56150.89
2018-10-05T23:16:08.108Z,56141.63
2018-10-05T23:18:37.313Z,56119.01
2018-10-05T23:21:06.584Z,56158.09
2018-10-05T23:23:35.764Z,56145.75
2018-10-05T23:26:04.892Z,56170.42
2018-10-05T23:28:34.093Z,56143.69
2018-10-05T23:31:03.292Z,56164.25
2018-10-05T23:33:32.514Z,56129.29
2018-10-05T23:36:01.685Z,56145.75
2018-10-05T23:38:30.870Z,56190.99
2018-10-05T23:41:00.036Z,56128.27
2018-10-05T23:43:29.204Z,56150.89
2018-10-05T23:45:58.358Z,56141.63
2018-10-05T23:48:27.524Z,56178.65
2018-10-05T23:50:56.700Z,56193.05
2018-10-05T23:53:25.864Z,56155.00
2018-10-05T23:55:55.016Z,56139.57
2018-10-05T23:58:24.176Z,56150.89
